Kezdőlap
METAR-TAF:

METAR-TAF

Repülőterek :

Tak, Thaiföld

földrajzi szélesség: 16-53N, földrajzi hosszúság: 099-09E, magasság: 121 m

METAR: hiányzik

Idő: 21:08 (14:08 UTC)

Előrejelzés

A jelentés 3 órával és 8 perccel ezelõtt készült, 11:00 UTC
Az előrejelzés 31-én 12 óra UTC és 01-én 12 óra UTC között érvényes
Nyugat-délnyugati szél 5 kt
Látótávolság 10 km, vagy több
Szórványos felhőzet 2500 lábon
31-én 12 óra UTC és 31-én 14 óra UTC között ideiglenes
Nyugat-délnyugati szél 15 kt széllökések: 30 kt
Látótávolság: 4000 m
Kevés felhő 2000 lábon, Cumulonimbus.
Szakadozott felhőzet 3000 lábon
zivatar, esõ

TAF: VTPT 311100Z 3112/0112 24005KT 9999 SCT025 TEMPO 3112/3114 24015G30KT 4000 TSRA FEW020CB BKN030

Meteorológiai megfigyelések és előrejelzések több, mint 4000 repülőtéren (METAR és TAF jelentéseket).

A térképen piros és sárga pontok jelzik az elérhető meteorológiai állomásokat.

Mozgassa az egeret a pont fölött, hogy megjelenjen az állomás neve.

Azután kattintson az időjárási megfigyelések és előrejelzések megtekintéséhez.

A térkép megváltoztatása: kattintson a fekete keresztel jelölt zöld gombra ráközelítéshez, a vonallal jelölt zöld gombra távolításhoz, vagy a zöld nyilakra a szomszédos térképek eléréséhez.


METAR-TAF: